createdAt,value
2022-10-31T00:01:17.219Z,15.98
2022-10-31T00:03:44.520Z,13.75
2022-10-31T00:06:11.672Z,18.38
2022-10-31T00:08:39.016Z,14.60
2022-10-31T00:11:09.877Z,14.90
2022-10-31T00:13:37.063Z,18.88
2022-10-31T00:16:04.245Z,24.23
2022-10-31T00:18:31.418Z,14.40
2022-10-31T00:21:04.954Z,15.77
2022-10-31T00:23:32.146Z,15.63
2022-10-31T00:26:03.124Z,14.45
2022-10-31T00:28:31.422Z,16.60
2022-10-31T00:31:06.212Z,20.20
2022-10-31T00:33:34.785Z,16.48
2022-10-31T00:36:02.040Z,14.40
2022-10-31T00:38:29.304Z,16.70
2022-10-31T00:40:56.431Z,10.88
2022-10-31T00:43:23.628Z,19.77
2022-10-31T00:45:50.791Z,13.48
2022-10-31T00:48:17.989Z,16.48
2022-10-31T00:50:45.208Z,17.55
2022-10-31T00:53:12.493Z,14.23
2022-10-31T00:55:39.743Z,15.48
2022-10-31T00:58:07.009Z,12.82
2022-10-31T01:00:34.340Z,13.68
2022-10-31T01:03:01.893Z,20.38
2022-10-31T01:05:29.383Z,12.35
2022-10-31T01:07:56.562Z,10.75
2022-10-31T01:10:24.192Z,17.73
2022-10-31T01:12:51.591Z,15.15
2022-10-31T01:15:21.072Z,14.05
2022-10-31T01:17:48.539Z,9.93
2022-10-31T01:20:16.388Z,16.15
2022-10-31T01:22:43.641Z,9.88
2022-10-31T01:25:11.122Z,12.90
2022-10-31T01:27:38.295Z,10.73
2022-10-31T01:30:06.572Z,11.73
2022-10-31T01:32:33.806Z,17.23
2022-10-31T01:35:01.009Z,11.80
2022-10-31T01:37:28.234Z,14.05
2022-10-31T01:39:55.424Z,11.05
2022-10-31T01:42:23.879Z,18.30
2022-10-31T01:44:54.077Z,14.15
2022-10-31T01:47:23.242Z,18.40
2022-10-31T01:49:52.911Z,13.60
2022-10-31T01:52:20.103Z,11.43
2022-10-31T01:54:51.497Z,13.05
2022-10-31T01:57:19.948Z,14.75
2022-10-31T01:59:49.592Z,11.70
2022-10-31T02:02:18.682Z,14.98
2022-10-31T02:04:46.567Z,18.35
2022-10-31T02:07:20.273Z,11.15
2022-10-31T02:09:49.300Z,23.08
2022-10-31T02:12:17.003Z,9.52
2022-10-31T02:14:44.573Z,12.48
2022-10-31T02:17:11.868Z,17.48
2022-10-31T02:19:54.499Z,14.90
2022-10-31T02:22:39.979Z,11.80
2022-10-31T02:25:07.172Z,10.85
2022-10-31T02:27:37.817Z,10.50
2022-10-31T02:30:06.552Z,12.70
2022-10-31T02:32:45.986Z,14.68
2022-10-31T02:35:19.323Z,16.65
2022-10-31T02:37:46.489Z,15.05
2022-10-31T02:40:31.824Z,16.55
2022-10-31T02:42:59.721Z,9.55
2022-10-31T02:45:32.648Z,12.73
2022-10-31T02:48:02.711Z,10.00
2022-10-31T02:50:37.877Z,9.88
2022-10-31T02:53:05.386Z,11.02
2022-10-31T02:55:32.768Z,15.32
2022-10-31T02:58:03.595Z,11.45
2022-10-31T03:00:35.884Z,12.48
2022-10-31T03:03:12.377Z,14.65
2022-10-31T03:05:42.672Z,7.57
2022-10-31T03:08:19.039Z,12.55
2022-10-31T03:10:56.833Z,15.60
2022-10-31T03:13:34.887Z,10.00
2022-10-31T03:16:15.519Z,12.63
2022-10-31T03:18:46.589Z,12.90
2022-10-31T03:21:21.503Z,15.02
2022-10-31T03:23:49.925Z,13.98
2022-10-31T03:26:17.603Z,19.40
2022-10-31T03:29:04.980Z,18.23
2022-10-31T03:31:35.720Z,20.35
2022-10-31T03:34:03.400Z,15.60
2022-10-31T03:36:33.142Z,10.38
2022-10-31T03:39:04.379Z,7.47
2022-10-31T03:41:33.978Z,15.93
2022-10-31T03:44:03.540Z,9.75
2022-10-31T03:46:30.781Z,10.75
2022-10-31T03:48:58.404Z,14.60
2022-10-31T03:51:25.544Z,15.95
2022-10-31T03:53:57.000Z,12.10
2022-10-31T03:56:43.662Z,13.00
2022-10-31T03:59:19.579Z,11.23
2022-10-31T04:01:49.743Z,15.95
2022-10-31T04:04:17.014Z,14.48
2022-10-31T04:06:46.133Z,13.63
2022-10-31T04:09:14.364Z,11.75
2022-10-31T04:11:48.073Z,12.57
2022-10-31T04:14:15.201Z,16.23
2022-10-31T04:16:44.348Z,11.60
2022-10-31T04:19:12.281Z,17.60
2022-10-31T04:21:39.563Z,13.75
2022-10-31T04:24:06.941Z,13.32
2022-10-31T04:26:34.108Z,12.43
2022-10-31T04:29:01.246Z,10.00
2022-10-31T04:31:28.475Z,12.68
2022-10-31T04:33:55.712Z,11.02
2022-10-31T04:36:22.972Z,15.25
2022-10-31T04:38:50.282Z,19.23
2022-10-31T04:41:17.432Z,11.25
2022-10-31T04:43:44.601Z,16.13
2022-10-31T04:46:11.745Z,10.30
2022-10-31T04:48:38.939Z,16.48
2022-10-31T04:51:06.245Z,14.95
2022-10-31T04:53:33.536Z,15.18
2022-10-31T04:56:01.919Z,19.63
2022-10-31T04:58:29.370Z,11.75
2022-10-31T05:00:57.233Z,14.52
2022-10-31T05:03:24.596Z,17.25
2022-10-31T05:05:51.756Z,13.63
2022-10-31T05:08:19.009Z,11.38
2022-10-31T05:10:46.288Z,16.13
2022-10-31T05:13:13.758Z,13.55
2022-10-31T05:15:40.947Z,18.58
2022-10-31T05:18:08.115Z,16.35
2022-10-31T05:20:35.404Z,22.42
2022-10-31T05:23:02.607Z,15.35
2022-10-31T05:25:30.425Z,14.65
2022-10-31T05:27:58.561Z,20.65
2022-10-31T05:30:27.337Z,15.20
2022-10-31T05:32:54.631Z,18.80
2022-10-31T05:35:32.152Z,30.02
2022-10-31T05:38:00.038Z,19.75
2022-10-31T05:40:28.703Z,13.00
2022-10-31T05:42:56.861Z,13.57
2022-10-31T05:45:24.384Z,15.68
2022-10-31T05:47:55.584Z,20.98
2022-10-31T05:50:23.306Z,14.30
2022-10-31T05:52:56.235Z,15.90
2022-10-31T05:55:23.898Z,12.45
2022-10-31T05:57:51.075Z,10.57
2022-10-31T06:00:18.515Z,13.52
2022-10-31T06:02:45.744Z,8.90
2022-10-31T06:05:13.560Z,11.85
2022-10-31T06:07:40.835Z,16.25
2022-10-31T06:10:08.863Z,12.77
2022-10-31T06:12:38.623Z,22.88
2022-10-31T06:15:09.333Z,15.82
2022-10-31T06:17:37.131Z,17.45
2022-10-31T06:20:05.007Z,11.15
2022-10-31T06:22:32.332Z,18.42
2022-10-31T06:24:59.528Z,11.80
2022-10-31T06:27:26.927Z,19.63
2022-10-31T06:29:54.131Z,14.20
2022-10-31T06:32:21.392Z,9.90
2022-10-31T06:34:51.404Z,14.32
2022-10-31T06:37:18.593Z,13.07
2022-10-31T06:39:45.772Z,18.23
2022-10-31T06:42:13.053Z,13.55
2022-10-31T06:44:40.215Z,13.48
2022-10-31T06:47:07.566Z,15.00
2022-10-31T06:49:35.036Z,17.75
2022-10-31T06:52:02.366Z,16.98
2022-10-31T06:54:29.550Z,9.80
2022-10-31T06:56:56.688Z,24.73
2022-10-31T06:59:25.214Z,29.95
2022-10-31T07:01:52.545Z,25.33
2022-10-31T07:04:20.074Z,16.15
2022-10-31T07:06:51.779Z,18.48
2022-10-31T07:09:19.421Z,16.95
2022-10-31T07:11:46.622Z,19.83
2022-10-31T07:14:13.873Z,11.45
2022-10-31T07:16:41.029Z,22.08
2022-10-31T07:19:08.186Z,22.10
2022-10-31T07:21:35.371Z,16.67
2022-10-31T07:24:02.610Z,16.98
2022-10-31T07:26:29.832Z,17.00
2022-10-31T07:28:57.077Z,15.00
2022-10-31T07:31:25.471Z,19.70
2022-10-31T07:33:52.726Z,17.67
2022-10-31T07:36:19.884Z,14.73
2022-10-31T07:38:47.209Z,17.23
2022-10-31T07:41:14.421Z,18.55
2022-10-31T07:43:41.712Z,20.73
2022-10-31T07:46:09.007Z,23.10
2022-10-31T07:48:36.159Z,24.67
2022-10-31T07:51:03.324Z,19.83
2022-10-31T07:53:30.638Z,31.67
2022-10-31T07:55:57.835Z,18.70
2022-10-31T07:58:26.058Z,22.38
2022-10-31T08:00:53.304Z,16.70
2022-10-31T08:03:21.246Z,24.45
2022-10-31T08:05:48.611Z,22.25
2022-10-31T08:08:16.224Z,23.27
2022-10-31T08:10:43.900Z,53.60
2022-10-31T08:13:12.742Z,36.08
2022-10-31T08:15:42.375Z,49.15
2022-10-31T08:18:14.926Z,48.58
2022-10-31T08:20:45.539Z,28.67
2022-10-31T08:23:13.432Z,48.28
2022-10-31T08:25:40.936Z,89.05
2022-10-31T08:28:08.496Z,101.07
2022-10-31T08:30:37.143Z,189.52
2022-10-31T08:33:07.455Z,158.65
2022-10-31T08:35:35.020Z,82.60
2022-10-31T08:38:02.944Z,40.60
2022-10-31T08:40:31.435Z,48.20
2022-10-31T08:42:59.303Z,26.70
2022-10-31T08:45:26.829Z,26.45
2022-10-31T08:47:54.016Z,24.13
2022-10-31T08:50:21.281Z,15.32
2022-10-31T08:53:04.135Z,24.55
2022-10-31T08:55:31.760Z,16.15
2022-10-31T08:58:00.489Z,20.50
2022-10-31T09:00:28.299Z,19.35
2022-10-31T09:02:59.451Z,20.05
2022-10-31T09:05:27.065Z,22.95
2022-10-31T09:07:58.703Z,19.67
2022-10-31T09:10:26.965Z,14.80
2022-10-31T09:13:01.371Z,27.10
2022-10-31T09:15:29.023Z,18.58
2022-10-31T09:17:56.374Z,23.20
2022-10-31T09:20:24.089Z,18.63
2022-10-31T09:22:58.002Z,19.63
2022-10-31T09:25:25.315Z,11.73
2022-10-31T09:27:52.577Z,17.33
2022-10-31T09:30:20.056Z,18.25
2022-10-31T09:32:47.333Z,18.83
2022-10-31T09:35:14.571Z,14.75
2022-10-31T09:37:41.944Z,18.10
2022-10-31T09:40:09.461Z,19.92
2022-10-31T09:42:46.149Z,20.02
2022-10-31T09:45:18.144Z,19.58
2022-10-31T09:48:11.795Z,18.67
2022-10-31T09:50:42.045Z,17.55
2022-10-31T09:53:35.991Z,12.68
2022-10-31T09:56:04.214Z,12.75
2022-10-31T09:58:34.144Z,10.15
2022-10-31T10:01:05.325Z,14.95
2022-10-31T10:03:46.102Z,16.60
2022-10-31T10:06:15.913Z,15.30
2022-10-31T10:08:43.159Z,13.07
2022-10-31T10:11:18.906Z,16.77
2022-10-31T10:13:52.182Z,11.73
2022-10-31T10:16:34.602Z,12.25
2022-10-31T10:19:27.143Z,13.25
2022-10-31T10:21:57.460Z,21.10
2022-10-31T10:24:30.567Z,7.20
2022-10-31T10:27:04.025Z,12.63
2022-10-31T10:29:52.610Z,9.13
2022-10-31T10:32:22.705Z,13.18
2022-10-31T10:34:52.515Z,13.48
2022-10-31T10:37:25.962Z,8.10
2022-10-31T10:39:56.496Z,10.70
2022-10-31T10:42:44.228Z,10.07
2022-10-31T10:45:37.572Z,18.10
2022-10-31T10:48:13.648Z,8.57
2022-10-31T10:50:43.501Z,9.95
2022-10-31T10:53:33.604Z,7.07
2022-10-31T10:56:00.863Z,11.50
2022-10-31T10:58:28.017Z,11.30
2022-10-31T11:00:56.776Z,9.50
2022-10-31T11:03:24.060Z,22.38
2022-10-31T11:05:59.616Z,17.45
2022-10-31T11:08:30.789Z,7.60
2022-10-31T11:11:02.726Z,9.82
2022-10-31T11:13:31.272Z,9.15
2022-10-31T11:16:03.569Z,7.22
2022-10-31T11:18:35.688Z,9.43
2022-10-31T11:21:05.180Z,10.13
2022-10-31T11:23:32.735Z,6.65
2022-10-31T11:26:00.023Z,16.73
2022-10-31T11:28:30.266Z,8.32
2022-10-31T11:30:59.528Z,9.88
2022-10-31T11:33:26.782Z,13.07
2022-10-31T11:35:57.914Z,11.13
2022-10-31T11:38:27.967Z,6.88
2022-10-31T11:40:56.530Z,5.65
2022-10-31T11:43:24.085Z,6.70
2022-10-31T11:45:51.414Z,8.15
2022-10-31T11:48:20.387Z,7.03
2022-10-31T11:50:52.568Z,13.20
2022-10-31T11:53:22.453Z,8.90
2022-10-31T11:55:49.994Z,11.48
2022-10-31T11:58:22.333Z,8.35
2022-10-31T12:00:56.768Z,12.07
2022-10-31T12:03:23.997Z,9.50
2022-10-31T12:05:53.727Z,11.65
2022-10-31T12:08:21.129Z,10.23
2022-10-31T12:10:53.660Z,7.57
2022-10-31T12:13:20.786Z,13.50
2022-10-31T12:15:54.050Z,8.63
2022-10-31T12:18:34.703Z,6.57
2022-10-31T12:21:14.076Z,9.50
2022-10-31T12:24:00.022Z,9.40
2022-10-31T12:26:44.429Z,6.45
2022-10-31T12:29:32.052Z,9.68
2022-10-31T12:32:07.520Z,8.98
2022-10-31T12:34:34.733Z,8.80
2022-10-31T12:37:08.292Z,9.35
2022-10-31T12:42:14.246Z,10.85
2022-10-31T12:44:57.626Z,42.45
2022-10-31T12:47:31.126Z,22.60
2022-10-31T12:49:58.480Z,186.48
2022-10-31T12:52:34.143Z,207.27
2022-10-31T12:55:20.242Z,453.48
2022-10-31T12:57:50.321Z,119.93
2022-10-31T13:00:18.630Z,159.93
2022-10-31T13:02:45.884Z,89.68
2022-10-31T13:05:16.253Z,63.90
2022-10-31T13:07:54.678Z,15.52
2022-10-31T13:10:25.410Z,18.55
2022-10-31T13:12:55.110Z,16.23
2022-10-31T13:15:28.674Z,21.60
2022-10-31T13:20:28.967Z,36.63
2022-10-31T13:22:58.738Z,15.20
2022-10-31T13:25:26.236Z,65.60
2022-10-31T13:28:04.874Z,23.63
2022-10-31T13:30:34.647Z,33.88
2022-10-31T13:33:12.507Z,41.33
2022-10-31T13:35:50.965Z,24.60
2022-10-31T13:38:21.221Z,28.77
2022-10-31T13:41:01.097Z,20.60
2022-10-31T13:43:28.298Z,11.55
2022-10-31T13:45:56.758Z,12.93
2022-10-31T13:48:27.065Z,6.75
2022-10-31T13:50:58.683Z,14.25
2022-10-31T13:53:37.588Z,16.63
2022-10-31T13:56:07.219Z,24.75
2022-10-31T13:58:34.466Z,17.70
2022-10-31T14:01:04.869Z,13.13
2022-10-31T14:03:57.758Z,14.68
2022-10-31T14:06:19.843Z,8.68
2022-10-31T14:08:51.111Z,8.52
2022-10-31T14:11:31.572Z,10.27
2022-10-31T14:14:02.282Z,5.13
2022-10-31T14:16:31.649Z,5.88
2022-10-31T14:19:01.048Z,7.63
2022-10-31T14:21:30.151Z,8.27
2022-10-31T14:23:58.336Z,13.95
2022-10-31T14:26:29.455Z,11.48
2022-10-31T14:28:58.165Z,7.93
2022-10-31T14:31:35.962Z,10.48
2022-10-31T14:34:07.022Z,7.80
2022-10-31T14:37:00.701Z,9.70
2022-10-31T14:39:33.281Z,11.73
2022-10-31T14:42:06.534Z,18.92
2022-10-31T14:44:33.791Z,11.57
2022-10-31T14:47:09.229Z,11.70
2022-10-31T14:49:42.406Z,10.10
2022-10-31T14:52:10.259Z,10.27
2022-10-31T14:54:42.929Z,11.63
2022-10-31T14:57:17.119Z,14.05
2022-10-31T14:59:49.801Z,15.43
2022-10-31T15:02:20.966Z,11.95
2022-10-31T15:04:49.628Z,11.02
2022-10-31T15:07:24.175Z,10.77
2022-10-31T15:10:01.084Z,9.38
2022-10-31T15:12:31.255Z,8.93
2022-10-31T15:14:59.771Z,10.60
2022-10-31T15:17:27.994Z,10.25
2022-10-31T15:19:56.183Z,14.13
2022-10-31T15:22:25.398Z,12.63
2022-10-31T15:24:57.227Z,13.60
2022-10-31T15:27:25.681Z,11.45
2022-10-31T15:29:57.070Z,12.35
2022-10-31T15:32:24.356Z,10.63
2022-10-31T15:34:52.903Z,7.00
2022-10-31T15:37:21.311Z,11.10
2022-10-31T15:39:49.410Z,8.38
2022-10-31T15:42:36.924Z,11.55
2022-10-31T15:45:06.688Z,11.80
2022-10-31T15:47:35.010Z,9.82
2022-10-31T15:50:03.153Z,8.68
2022-10-31T15:52:32.999Z,11.88
2022-10-31T15:55:19.477Z,7.65
2022-10-31T15:57:49.044Z,11.45
2022-10-31T16:00:32.832Z,8.48
2022-10-31T16:03:05.244Z,11.60
2022-10-31T16:05:56.795Z,11.80
2022-10-31T16:08:29.995Z,16.38
2022-10-31T16:11:09.421Z,16.73
2022-10-31T16:13:37.904Z,21.55
2022-10-31T16:16:34.278Z,24.13
2022-10-31T16:19:00.707Z,21.83
2022-10-31T16:21:35.854Z,34.63
2022-10-31T16:24:06.204Z,29.35
2022-10-31T16:26:33.933Z,27.70
2022-10-31T16:29:05.526Z,33.83
2022-10-31T16:31:40.302Z,29.98
2022-10-31T16:34:19.346Z,22.08
2022-10-31T16:36:49.702Z,26.77
2022-10-31T16:39:18.331Z,36.67
2022-10-31T16:41:47.478Z,27.95
2022-10-31T16:44:20.498Z,29.92
2022-10-31T16:46:47.806Z,20.23
2022-10-31T16:49:16.663Z,20.05
2022-10-31T16:51:44.129Z,12.95
2022-10-31T16:54:11.953Z,17.30
2022-10-31T16:56:39.826Z,13.38
2022-10-31T16:59:13.361Z,13.13
2022-10-31T17:01:45.785Z,17.13
2022-10-31T17:04:16.535Z,14.63
2022-10-31T17:06:44.168Z,19.13
2022-10-31T17:09:12.568Z,18.85
2022-10-31T17:11:49.212Z,14.55
2022-10-31T17:14:17.502Z,19.58
2022-10-31T17:16:44.768Z,30.17
2022-10-31T17:19:12.950Z,21.27
2022-10-31T17:21:40.808Z,26.10
2022-10-31T17:24:09.878Z,30.40
2022-10-31T17:26:37.119Z,38.85
2022-10-31T17:29:04.361Z,31.63
2022-10-31T17:31:32.598Z,23.88
2022-10-31T17:34:02.763Z,30.48
2022-10-31T17:36:31.595Z,26.33
2022-10-31T17:38:58.902Z,23.88
2022-10-31T17:41:26.287Z,23.48
2022-10-31T17:43:57.167Z,26.67
2022-10-31T17:46:24.397Z,25.60
2022-10-31T17:48:51.637Z,24.88
2022-10-31T17:51:18.920Z,22.17
2022-10-31T17:53:46.220Z,24.77
2022-10-31T17:56:13.630Z,26.35
2022-10-31T17:58:41.491Z,20.05
2022-10-31T18:01:10.609Z,20.20
2022-10-31T18:03:38.315Z,19.20
2022-10-31T18:06:05.654Z,27.35
2022-10-31T18:08:35.084Z,36.60
2022-10-31T18:11:09.099Z,32.75
2022-10-31T18:13:37.053Z,32.72
2022-10-31T18:16:08.426Z,39.55
2022-10-31T18:18:35.729Z,36.10
2022-10-31T18:21:02.954Z,33.03
2022-10-31T18:23:30.290Z,27.63
2022-10-31T18:25:57.596Z,30.77
2022-10-31T18:28:24.861Z,24.90
2022-10-31T18:30:52.035Z,27.42
2022-10-31T18:33:19.387Z,27.63
2022-10-31T18:35:46.669Z,24.70
2022-10-31T18:38:13.864Z,28.45
2022-10-31T18:40:41.197Z,23.63
2022-10-31T18:43:08.480Z,25.05
2022-10-31T18:45:54.983Z,23.70
2022-10-31T18:48:23.003Z,26.65
2022-10-31T18:50:50.372Z,26.83
2022-10-31T18:53:17.599Z,21.80
2022-10-31T18:55:49.127Z,20.92
2022-10-31T18:58:17.493Z,21.60
2022-10-31T19:00:46.048Z,20.92
2022-10-31T19:03:13.870Z,20.35
2022-10-31T19:05:43.899Z,18.60
2022-10-31T19:08:11.216Z,21.10
2022-10-31T19:10:39.462Z,17.23
2022-10-31T19:13:06.733Z,24.67
2022-10-31T19:15:37.346Z,19.88
2022-10-31T19:18:04.628Z,17.60
2022-10-31T19:20:32.027Z,17.80
2022-10-31T19:22:59.523Z,16.38
2022-10-31T19:25:27.027Z,18.88
2022-10-31T19:27:54.314Z,18.33
2022-10-31T19:30:21.707Z,18.67
2022-10-31T19:32:48.983Z,16.88
2022-10-31T19:35:16.325Z,14.48
2022-10-31T19:37:43.634Z,14.38
2022-10-31T19:40:11.184Z,18.58
2022-10-31T19:42:38.459Z,22.77
2022-10-31T19:45:05.864Z,32.38
2022-10-31T19:47:34.223Z,30.75
2022-10-31T19:50:01.642Z,35.60
2022-10-31T19:52:28.904Z,28.98
2022-10-31T19:54:56.165Z,30.17
2022-10-31T19:57:48.514Z,33.88
2022-10-31T20:00:11.163Z,27.95
2022-10-31T20:02:38.407Z,33.25
2022-10-31T20:05:05.797Z,31.73
2022-10-31T20:07:32.976Z,27.55
2022-10-31T20:10:00.337Z,23.38
2022-10-31T20:12:27.569Z,26.02
2022-10-31T20:14:54.887Z,25.52
2022-10-31T20:17:22.165Z,22.35
2022-10-31T20:19:49.326Z,23.50
2022-10-31T20:22:16.538Z,29.05
2022-10-31T20:24:43.704Z,24.15
2022-10-31T20:27:10.933Z,26.20
2022-10-31T20:29:38.130Z,25.92
2022-10-31T20:32:05.441Z,20.45
2022-10-31T20:34:32.669Z,23.08
2022-10-31T20:36:59.873Z,23.58
2022-10-31T20:39:27.131Z,23.65
2022-10-31T20:41:54.372Z,20.05
2022-10-31T20:44:21.635Z,23.48
2022-10-31T20:46:48.859Z,21.58
2022-10-31T20:49:16.207Z,22.40
2022-10-31T20:51:43.393Z,17.85
2022-10-31T20:54:12.899Z,19.35
2022-10-31T20:56:40.102Z,25.27
2022-10-31T20:59:07.377Z,24.73
2022-10-31T21:01:36.405Z,25.77
2022-10-31T21:04:04.883Z,22.55
2022-10-31T21:06:32.183Z,21.08
2022-10-31T21:08:59.472Z,23.02
2022-10-31T21:11:27.448Z,24.23
2022-10-31T21:13:54.871Z,20.08
2022-10-31T21:16:23.314Z,20.77
2022-10-31T21:18:50.912Z,21.65
2022-10-31T21:21:19.835Z,19.70
2022-10-31T21:23:47.354Z,24.10
2022-10-31T21:26:16.857Z,20.42
2022-10-31T21:28:44.060Z,21.02
2022-10-31T21:31:13.001Z,18.48
2022-10-31T21:33:40.603Z,20.42
2022-10-31T21:36:07.910Z,23.10
2022-10-31T21:38:35.557Z,17.27
2022-10-31T21:41:03.993Z,21.27
2022-10-31T21:43:31.560Z,19.38
2022-10-31T21:46:06.018Z,24.95
2022-10-31T21:48:33.297Z,20.33
2022-10-31T21:51:05.032Z,23.95
2022-10-31T21:53:50.753Z,22.70
2022-10-31T21:56:17.985Z,19.67
2022-10-31T21:58:45.221Z,25.60
2022-10-31T22:01:12.852Z,18.38
2022-10-31T22:03:40.666Z,22.60
2022-10-31T22:06:09.047Z,16.17
2022-10-31T22:08:36.685Z,18.20
2022-10-31T22:11:05.051Z,20.08
2022-10-31T22:13:32.968Z,18.85
2022-10-31T22:16:03.615Z,15.95
2022-10-31T22:18:30.957Z,16.98
2022-10-31T22:21:17.595Z,15.02
2022-10-31T22:23:45.163Z,22.95
2022-10-31T22:26:14.412Z,24.00
2022-10-31T22:28:42.525Z,17.20
2022-10-31T22:33:37.864Z,21.98
2022-10-31T22:36:06.286Z,16.77
2022-10-31T22:38:40.410Z,14.57
2022-10-31T22:41:08.249Z,19.80
2022-10-31T22:43:35.553Z,18.60
2022-10-31T22:46:05.028Z,23.63
2022-10-31T22:48:35.584Z,16.10
2022-10-31T22:51:05.754Z,16.55
2022-10-31T22:53:32.984Z,17.40
2022-10-31T22:56:00.194Z,14.68
2022-10-31T22:58:29.092Z,15.40
2022-10-31T23:00:56.558Z,19.95
2022-10-31T23:03:23.849Z,18.02
2022-10-31T23:05:57.879Z,16.48
2022-10-31T23:08:25.277Z,18.52
2022-10-31T23:10:52.508Z,15.73
2022-10-31T23:13:38.758Z,21.90
2022-10-31T23:16:06.731Z,17.50
2022-10-31T23:18:49.754Z,21.23
2022-10-31T23:24:05.130Z,25.92
2022-10-31T23:26:50.916Z,19.05
2022-10-31T23:29:18.263Z,22.85
2022-10-31T23:31:45.668Z,19.13
2022-10-31T23:34:12.860Z,26.05
2022-10-31T23:36:40.046Z,20.40
2022-10-31T23:39:07.271Z,24.75
2022-10-31T23:41:34.583Z,24.83
2022-10-31T23:44:01.745Z,23.45
2022-10-31T23:46:28.947Z,21.38
2022-10-31T23:48:56.108Z,20.77
2022-10-31T23:51:23.283Z,22.85
2022-10-31T23:53:50.537Z,22.27
2022-10-31T23:56:17.709Z,25.60
2022-10-31T23:58:44.883Z,28.02
